Eagle Turin — 9VMG6 — position and weather

sailwx.info

Track history (hours):
 
Tides and Currents Weather Stations Pressure Air Temp Water Temp Dewpoint Dewpoint Depression Visibility Wind Speed Wind Dir Waves Ship Positions

Eagle Turin

Last reported at 2017-Mar-26 18:08 UTC. Time now 2017-May-01 06:23 UTC.
Position N 38°59' W 075°08'.
Warning: this ship's position is 35 days out of date.

Length 246 m; draft 8.5 m.

Type: Tanker. MMSI: 565770000.

Date/timePositionNaut miles runAvg speedWind from/ knotsBaromVisibWave heightAir tempDewpointWater temp
2017-Mar-26 18:08N 38°59' W 075°08'813.7
2017-Mar-26 17:33N 39°07' W 075°12'1313.5
2017-Mar-26 16:33N 39°18' W 075°22'1212.3
2017-Mar-26 15:33N 39°27' W 075°33'1010.1
2017-Mar-26 14:33N 39°37' W 075°35'10 9.9
2017-Mar-26 13:34N 39°46' W 075°29'4 3.9
2017-Mar-26 12:33N 39°48' W 075°25'0 0.2
2017-Mar-26 11:30N 39°48' W 075°25'0 0.0
2017-Mar-26 10:33N 39°48' W 075°25'0 0.0
2017-Mar-26 09:33N 39°48' W 075°25'0 0.0
2017-Mar-26 08:33N 39°48' W 075°25'0 0.0
2017-Mar-26 07:33N 39°48' W 075°25'0 0.0
2017-Mar-26 06:33N 39°48' W 075°25'0 0.0
2017-Mar-26 05:33N 39°48' W 075°25'0 0.3
2017-Mar-26 04:33N 39°48' W 075°25'0 0.0
2017-Mar-26 03:33N 39°48' W 075°25'0 0.0
2017-Mar-26 02:33N 39°48' W 075°25'0 0.0
2017-Mar-26 01:33N 39°48' W 075°25'0 0.2
2017-Mar-26 00:33N 39°48' W 075°25'0 0.2
2017-Mar-25 23:33N 39°48' W 075°25'0 0.0
2017-Mar-25 22:33N 39°48' W 075°25'0 0.0
2017-Mar-25 21:33N 39°48' W 075°25'0 0.1
2017-Mar-25 20:34N 39°48' W 075°25'4 4.4
2017-Mar-25 19:34N 39°51' W 075°21'3 3.4
2017-Mar-25 18:34N 39°51' W 075°16'0 0.0
2017-Mar-25 17:32N 39°51' W 075°16'0 0.0
2017-Mar-25 16:32N 39°51' W 075°16'0 0.0
2017-Mar-25 15:31N 39°51' W 075°16'0 0.0
2017-Mar-25 14:31N 39°51' W 075°16'0 0.0
2017-Mar-25 13:31N 39°51' W 075°16'0 0.0
2017-Mar-25 12:31N 39°51' W 075°16'0 0.0
2017-Mar-25 11:32N 39°51' W 075°16'0 0.0
2017-Mar-25 10:31N 39°51' W 075°16'0 0.0
2017-Mar-25 09:32N 39°51' W 075°16'0 0.0
2017-Mar-25 08:31N 39°51' W 075°16'0 0.0
2017-Mar-25 07:32N 39°51' W 075°16'0 0.0
2017-Mar-25 06:31N 39°51' W 075°16'0 0.0
2017-Mar-25 05:29N 39°51' W 075°16'0 0.0
2017-Mar-25 04:31N 39°51' W 075°16'0 0.0
2017-Mar-25 03:31N 39°51' W 075°16'0 0.0
2017-Mar-25 02:32N 39°51' W 075°16'0 0.0
2017-Mar-25 01:29N 39°51' W 075°16'0 0.0
2017-Mar-25 00:31N 39°51' W 075°16'0 0.0
2017-Mar-24 23:31N 39°51' W 075°16'0 0.0
2017-Mar-24 22:31N 39°51' W 075°16'0 0.0
2017-Mar-24 21:32N 39°51' W 075°16'0 0.0
2017-Mar-24 20:32N 39°51' W 075°16'0 0.0
2017-Mar-24 19:32N 39°51' W 075°16'0 0.0
2017-Mar-24 18:31N 39°51' W 075°16'0 0.0
2017-Mar-24 17:28N 39°51' W 075°16'0 0.0
2017-Mar-24 16:32N 39°51' W 075°16'0 0.0
2017-Mar-24 15:32N 39°51' W 075°16'0 0.0
2017-Mar-24 14:31N 39°51' W 075°16'0 0.0
2017-Mar-24 13:32N 39°51' W 075°16'0 0.0
2017-Mar-24 12:31N 39°51' W 075°16'0 0.0
2017-Mar-24 11:32N 39°51' W 075°16'0 0.0
2017-Mar-24 10:31N 39°51' W 075°16'0 0.0
2017-Mar-24 09:32N 39°51' W 075°16'0 0.0
2017-Mar-24 08:32N 39°51' W 075°16'0 0.0
2017-Mar-24 07:32N 39°51' W 075°16'0 0.0
2017-Mar-24 06:31N 39°51' W 075°16'0 0.0
2017-Mar-24 05:31N 39°51' W 075°16'1 1.5
2017-Mar-24 04:33N 39°51' W 075°18'7 7.3
2017-Mar-24 03:33N 39°48' W 075°27'9 8.6
2017-Mar-24 02:33N 39°40' W 075°32'10 9.9
2017-Mar-24 01:33N 39°30' W 075°33'1111.0
2017-Mar-24 00:33N 39°21' W 075°26'1211.7
2017-Mar-23 23:33N 39°12' W 075°17'1211.6
2017-Mar-23 22:33N 39°01' W 075°09'1511.3
2017-Mar-23 21:13N 38°47' W 075°02'  
2017-Mar-20 08:04N 26°21' W 079°27'612.8
2017-Mar-20 07:33N 26°14' W 079°28'10 9.8
2017-Mar-20 06:33N 26°04' W 079°30'10 9.7
2017-Mar-20 05:33N 25°55' W 079°31'1514.7
2017-Mar-20 04:33N 25°40' W 079°33'1615.2
2017-Mar-20 03:29N 25°24' W 079°34'  
Track history (hours):
 
Tides and Currents Weather Stations Pressure Air Temp Water Temp Dewpoint Dewpoint Depression Visibility Wind Speed Wind Dir Waves Ship Positions

Eagle Turin

Last reported at 2017-Mar-26 18:08 UTC. Time now 2017-May-01 06:23 UTC.
Position N 38°59' W 075°08'.
Warning: this ship's position is 35 days out of date.

Length 246 m; draft 8.5 m.

Type: Tanker. MMSI: 565770000.

Date/timePositionNaut miles runAvg speedWind from/ knotsBaromVisibWave heightAir tempDewpointWater temp
2017-Mar-26 18:08N 38°59' W 075°08'813.7
2017-Mar-26 17:33N 39°07' W 075°12'1313.5
2017-Mar-26 16:33N 39°18' W 075°22'1212.3
2017-Mar-26 15:33N 39°27' W 075°33'1010.1
2017-Mar-26 14:33N 39°37' W 075°35'10 9.9
2017-Mar-26 13:34N 39°46' W 075°29'4 3.9
2017-Mar-26 12:33N 39°48' W 075°25'0 0.2
2017-Mar-26 11:30N 39°48' W 075°25'0 0.0
2017-Mar-26 10:33N 39°48' W 075°25'0 0.0
2017-Mar-26 09:33N 39°48' W 075°25'0 0.0
2017-Mar-26 08:33N 39°48' W 075°25'0 0.0
2017-Mar-26 07:33N 39°48' W 075°25'0 0.0
2017-Mar-26 06:33N 39°48' W 075°25'0 0.0
2017-Mar-26 05:33N 39°48' W 075°25'0 0.3
2017-Mar-26 04:33N 39°48' W 075°25'0 0.0
2017-Mar-26 03:33N 39°48' W 075°25'0 0.0
2017-Mar-26 02:33N 39°48' W 075°25'0 0.0
2017-Mar-26 01:33N 39°48' W 075°25'0 0.2
2017-Mar-26 00:33N 39°48' W 075°25'0 0.2
2017-Mar-25 23:33N 39°48' W 075°25'0 0.0
2017-Mar-25 22:33N 39°48' W 075°25'0 0.0
2017-Mar-25 21:33N 39°48' W 075°25'0 0.1
2017-Mar-25 20:34N 39°48' W 075°25'4 4.4
2017-Mar-25 19:34N 39°51' W 075°21'3 3.4
2017-Mar-25 18:34N 39°51' W 075°16'0 0.0
2017-Mar-25 17:32N 39°51' W 075°16'0 0.0
2017-Mar-25 16:32N 39°51' W 075°16'0 0.0
2017-Mar-25 15:31N 39°51' W 075°16'0 0.0
2017-Mar-25 14:31N 39°51' W 075°16'0 0.0
2017-Mar-25 13:31N 39°51' W 075°16'0 0.0
2017-Mar-25 12:31N 39°51' W 075°16'0 0.0
2017-Mar-25 11:32N 39°51' W 075°16'0 0.0
2017-Mar-25 10:31N 39°51' W 075°16'0 0.0
2017-Mar-25 09:32N 39°51' W 075°16'0 0.0
2017-Mar-25 08:31N 39°51' W 075°16'0 0.0
2017-Mar-25 07:32N 39°51' W 075°16'0 0.0
2017-Mar-25 06:31N 39°51' W 075°16'0 0.0
2017-Mar-25 05:29N 39°51' W 075°16'0 0.0
2017-Mar-25 04:31N 39°51' W 075°16'0 0.0
2017-Mar-25 03:31N 39°51' W 075°16'0 0.0
2017-Mar-25 02:32N 39°51' W 075°16'0 0.0
2017-Mar-25 01:29N 39°51' W 075°16'0 0.0
2017-Mar-25 00:31N 39°51' W 075°16'0 0.0
2017-Mar-24 23:31N 39°51' W 075°16'0 0.0
2017-Mar-24 22:31N 39°51' W 075°16'0 0.0
2017-Mar-24 21:32N 39°51' W 075°16'0 0.0
2017-Mar-24 20:32N 39°51' W 075°16'0 0.0
2017-Mar-24 19:32N 39°51' W 075°16'0 0.0
2017-Mar-24 18:31N 39°51' W 075°16'0 0.0
2017-Mar-24 17:28N 39°51' W 075°16'0 0.0
2017-Mar-24 16:32N 39°51' W 075°16'0 0.0
2017-Mar-24 15:32N 39°51' W 075°16'0 0.0
2017-Mar-24 14:31N 39°51' W 075°16'0 0.0
2017-Mar-24 13:32N 39°51' W 075°16'0 0.0
2017-Mar-24 12:31N 39°51' W 075°16'0 0.0
2017-Mar-24 11:32N 39°51' W 075°16'0 0.0
2017-Mar-24 10:31N 39°51' W 075°16'0 0.0
2017-Mar-24 09:32N 39°51' W 075°16'0 0.0
2017-Mar-24 08:32N 39°51' W 075°16'0 0.0
2017-Mar-24 07:32N 39°51' W 075°16'0 0.0
2017-Mar-24 06:31N 39°51' W 075°16'0 0.0
2017-Mar-24 05:31N 39°51' W 075°16'1 1.5
2017-Mar-24 04:33N 39°51' W 075°18'7 7.3
2017-Mar-24 03:33N 39°48' W 075°27'9 8.6
2017-Mar-24 02:33N 39°40' W 075°32'10 9.9
2017-Mar-24 01:33N 39°30' W 075°33'1111.0
2017-Mar-24 00:33N 39°21' W 075°26'1211.7
2017-Mar-23 23:33N 39°12' W 075°17'1211.6
2017-Mar-23 22:33N 39°01' W 075°09'1511.3
2017-Mar-23 21:13N 38°47' W 075°02'  
2017-Mar-20 08:04N 26°21' W 079°27'612.8
2017-Mar-20 07:33N 26°14' W 079°28'10 9.8
2017-Mar-20 06:33N 26°04' W 079°30'10 9.7
2017-Mar-20 05:33N 25°55' W 079°31'1514.7
2017-Mar-20 04:33N 25°40' W 079°33'1615.2
2017-Mar-20 03:29N 25°24' W 079°34'  

Dump ship's entire track history